NSZ3646 EKCH-LFMN
Flight info
| Callsign | NSZ3646 |
|---|---|
| Flight time | N/A |
| Altitude | 36000 |
| Route | NEXEN T503 GIMRU DCT MICOS DCT OTMON DCT BOMBI DCT GIGET DCT ABUKA DCT KRH DCT NATOR/N0439F350 DCT TRA DCT RIPUS DCT GERSA DCT SOSON DCT ODINA DCT ENOBA Z185 ASBOP/N0349F190 Z185 BORDI |
| Aircraft | B738/M-SDE2E3GHILRWXY/LB1 |
Departure
| Time | 2026-05-04 17:46 |
|---|---|
| Airport | Copenhagen Kastrup Airport (EKCH) |
Arrival
| Time | N/A |
|---|---|
| Airport | Nice-Côte d'Azur Airport (LFMN) |
| Time | Latitude | Longitude | Altitude | Speed | Heading |
|---|---|---|---|---|---|
| 2026-05-04 16:55 | 55.62725 | 12.64092 | 25 ft | 0 kts | 32° |
| 2026-05-04 16:58 | 55.62744 | 12.64038 | 25 ft | 0 kts | 32° |
| 2026-05-04 17:33 | 55.62733 | 12.64026 | 25 ft | 3 kts | 35° |
| 2026-05-04 17:34 | 55.62698 | 12.63948 | 25 ft | 3 kts | 95° |
| 2026-05-04 17:34 | 55.62701 | 12.63926 | 25 ft | 1 kts | 123° |
| 2026-05-04 17:35 | 55.62704 | 12.63920 | 25 ft | 0 kts | 123° |
| 2026-05-04 17:35 | 55.62702 | 12.63924 | 25 ft | 0 kts | 123° |
| 2026-05-04 17:37 | 55.62700 | 12.63929 | 25 ft | 3 kts | 123° |
| 2026-05-04 17:37 | 55.62662 | 12.64035 | 25 ft | 14 kts | 123° |
| 2026-05-04 17:38 | 55.62618 | 12.64155 | 25 ft | 7 kts | 123° |
| 2026-05-04 17:38 | 55.62576 | 12.64204 | 25 ft | 8 kts | 174° |
| 2026-05-04 17:38 | 55.62526 | 12.64224 | 25 ft | 7 kts | 148° |
| 2026-05-04 17:38 | 55.62494 | 12.64287 | 25 ft | 7 kts | 127° |
| 2026-05-04 17:39 | 55.62428 | 12.64430 | 25 ft | 8 kts | 148° |
| 2026-05-04 17:39 | 55.62383 | 12.64444 | 25 ft | 5 kts | 193° |
| 2026-05-04 17:39 | 55.62358 | 12.64434 | 25 ft | 0 kts | 193° |
| 2026-05-04 17:42 | 55.62358 | 12.64433 | 25 ft | 0 kts | 193° |
| 2026-05-04 17:43 | 55.62321 | 12.64418 | 25 ft | 13 kts | 193° |
| 2026-05-04 17:43 | 55.62207 | 12.64348 | 25 ft | 18 kts | 208° |
| 2026-05-04 17:43 | 55.62097 | 12.64258 | 25 ft | 17 kts | 203° |
| 2026-05-04 17:43 | 55.61991 | 12.64176 | 25 ft | 16 kts | 204° |
| 2026-05-04 17:44 | 55.61913 | 12.64115 | 25 ft | 10 kts | 204° |
| 2026-05-04 17:44 | 55.61846 | 12.64080 | 25 ft | 10 kts | 183° |
| 2026-05-04 17:44 | 55.61778 | 12.64081 | 25 ft | 10 kts | 179° |
| 2026-05-04 17:44 | 55.61713 | 12.64083 | 25 ft | 9 kts | 179° |
| 2026-05-04 17:45 | 55.61650 | 12.64085 | 25 ft | 9 kts | 185° |
| 2026-05-04 17:45 | 55.61616 | 12.64058 | 25 ft | 7 kts | 219° |
| 2026-05-04 17:45 | 55.61412 | 12.63734 | 25 ft | 71 kts | 226° |
| 2026-05-04 17:45 | 55.60881 | 12.62909 | 25 ft | 130 kts | 221° |
| 2026-05-04 17:46 | 55.60080 | 12.61706 | 194 ft | 163 kts | 222° |
| 2026-05-04 17:46 | 55.59185 | 12.60442 | 922 ft | 163 kts | 221° |
| 2026-05-04 17:46 | 55.58306 | 12.59188 | 1666 ft | 167 kts | 222° |
| 2026-05-04 17:46 | 55.57402 | 12.57728 | 2131 ft | 187 kts | 225° |
| 2026-05-04 17:47 | 55.56423 | 12.55992 | 2482 ft | 212 kts | 229° |
| 2026-05-04 17:47 | 55.55247 | 12.54237 | 2861 ft | 233 kts | 225° |
| 2026-05-04 17:47 | 55.53935 | 12.52529 | 3620 ft | 235 kts | 219° |
| 2026-05-04 17:47 | 55.52561 | 12.50929 | 4376 ft | 239 kts | 217° |
| 2026-05-04 17:48 | 55.51113 | 12.49300 | 4958 ft | 254 kts | 217° |
| 2026-05-04 17:48 | 55.49609 | 12.47574 | 5716 ft | 261 kts | 217° |
| 2026-05-04 17:48 | 55.48082 | 12.45786 | 6586 ft | 264 kts | 218° |
| 2026-05-04 17:48 | 55.46555 | 12.43960 | 7441 ft | 267 kts | 218° |
| 2026-05-04 17:49 | 55.45020 | 12.42076 | 8287 ft | 269 kts | 219° |
| 2026-05-04 17:49 | 55.43471 | 12.40181 | 9113 ft | 272 kts | 219° |
| 2026-05-04 17:49 | 55.41909 | 12.38279 | 9963 ft | 273 kts | 219° |
| 2026-05-04 17:49 | 55.40334 | 12.36368 | 10765 ft | 277 kts | 219° |
| 2026-05-04 17:50 | 55.38731 | 12.34427 | 11267 ft | 291 kts | 219° |
| 2026-05-04 17:50 | 55.37008 | 12.32344 | 11646 ft | 310 kts | 219° |
| 2026-05-04 17:50 | 55.35174 | 12.30127 | 12016 ft | 327 kts | 218° |
| 2026-05-04 17:50 | 55.33273 | 12.27840 | 12619 ft | 334 kts | 218° |
| 2026-05-04 17:51 | 55.31348 | 12.25522 | 13362 ft | 337 kts | 218° |
| 2026-05-04 17:51 | 55.29402 | 12.23183 | 14129 ft | 340 kts | 218° |
| 2026-05-04 17:51 | 55.27438 | 12.20825 | 14870 ft | 342 kts | 218° |
| 2026-05-04 17:51 | 55.25472 | 12.18466 | 15600 ft | 344 kts | 218° |
| 2026-05-04 17:52 | 55.23479 | 12.16076 | 16284 ft | 347 kts | 218° |
| 2026-05-04 17:52 | 55.21484 | 12.13682 | 16963 ft | 349 kts | 218° |
| 2026-05-04 17:52 | 55.19471 | 12.11252 | 17621 ft | 351 kts | 219° |
| 2026-05-04 17:52 | 55.17494 | 12.08747 | 18298 ft | 352 kts | 220° |
| 2026-05-04 17:53 | 55.15515 | 12.06188 | 18866 ft | 356 kts | 220° |
| 2026-05-04 17:53 | 55.13509 | 12.03609 | 19427 ft | 360 kts | 220° |
| 2026-05-04 17:53 | 55.11515 | 12.01056 | 19983 ft | 363 kts | 220° |
| 2026-05-04 17:53 | 55.09434 | 11.98400 | 20511 ft | 367 kts | 220° |
| 2026-05-04 17:54 | 55.07384 | 11.95788 | 21039 ft | 370 kts | 220° |
| 2026-05-04 17:54 | 55.05323 | 11.93099 | 21553 ft | 373 kts | 221° |
| 2026-05-04 17:54 | 55.03194 | 11.90344 | 22065 ft | 376 kts | 220° |
| 2026-05-04 17:54 | 55.01099 | 11.87666 | 22570 ft | 379 kts | 220° |
| 2026-05-04 17:55 | 54.98963 | 11.84954 | 23053 ft | 382 kts | 220° |
| 2026-05-04 17:55 | 54.96806 | 11.82229 | 23540 ft | 384 kts | 220° |
| 2026-05-04 17:55 | 54.94634 | 11.79491 | 23992 ft | 387 kts | 220° |
| 2026-05-04 17:55 | 54.92441 | 11.76732 | 24437 ft | 390 kts | 220° |
| 2026-05-04 17:56 | 54.90240 | 11.73966 | 24886 ft | 392 kts | 220° |
| 2026-05-04 17:56 | 54.88019 | 11.71178 | 25326 ft | 394 kts | 220° |
| 2026-05-04 17:56 | 54.85796 | 11.68389 | 25761 ft | 396 kts | 220° |
| 2026-05-04 17:56 | 54.83556 | 11.65581 | 26171 ft | 397 kts | 220° |
| 2026-05-04 17:57 | 54.81306 | 11.62760 | 26552 ft | 400 kts | 220° |
| 2026-05-04 17:57 | 54.79057 | 11.59913 | 26970 ft | 401 kts | 220° |
| 2026-05-04 17:57 | 54.76796 | 11.57072 | 27374 ft | 402 kts | 220° |
| 2026-05-04 17:57 | 54.74517 | 11.54232 | 27719 ft | 405 kts | 220° |
| 2026-05-04 17:58 | 54.72224 | 11.51387 | 28080 ft | 406 kts | 220° |
| 2026-05-04 17:58 | 54.69920 | 11.48538 | 28425 ft | 408 kts | 220° |
| 2026-05-04 17:58 | 54.67604 | 11.45681 | 28776 ft | 409 kts | 220° |
| 2026-05-04 17:58 | 54.65287 | 11.42825 | 29073 ft | 411 kts | 220° |
| 2026-05-04 17:59 | 54.62950 | 11.39948 | 29422 ft | 412 kts | 220° |
| 2026-05-04 17:59 | 54.60623 | 11.37086 | 29879 ft | 409 kts | 220° |
| 2026-05-04 17:59 | 54.55998 | 11.31399 | 30659 ft | 408 kts | 220° |
| 2026-05-04 18:00 | 54.53730 | 11.28578 | 31053 ft | 406 kts | 220° |
| 2026-05-04 18:00 | 54.51429 | 11.25742 | 31422 ft | 406 kts | 219° |
| 2026-05-04 18:00 | 54.49134 | 11.22936 | 31766 ft | 405 kts | 219° |
| 2026-05-04 18:00 | 54.46827 | 11.20128 | 32083 ft | 406 kts | 219° |
| 2026-05-04 18:01 | 54.44519 | 11.17325 | 32405 ft | 405 kts | 219° |
| 2026-05-04 18:01 | 54.42216 | 11.14536 | 32770 ft | 404 kts | 219° |
| 2026-05-04 18:01 | 54.39910 | 11.11745 | 33075 ft | 404 kts | 219° |
| 2026-05-04 18:02 | 54.35317 | 11.06195 | 33716 ft | 403 kts | 219° |
| 2026-05-04 18:02 | 54.32999 | 11.03477 | 34005 ft | 405 kts | 216° |
| 2026-05-04 18:02 | 54.30535 | 11.01101 | 34275 ft | 408 kts | 211° |
| 2026-05-04 18:02 | 54.27927 | 10.99132 | 34525 ft | 412 kts | 206° |
| 2026-05-04 18:03 | 54.25234 | 10.97391 | 34745 ft | 415 kts | 205° |
| 2026-05-04 18:03 | 54.22506 | 10.95756 | 35009 ft | 415 kts | 204° |
| 2026-05-04 18:03 | 54.19776 | 10.94141 | 35307 ft | 414 kts | 204° |
| 2026-05-04 18:03 | 54.17044 | 10.92532 | 35526 ft | 416 kts | 204° |
| 2026-05-04 18:04 | 54.14304 | 10.90923 | 35753 ft | 417 kts | 204° |
| 2026-05-04 18:04 | 54.11554 | 10.89312 | 35952 ft | 418 kts | 204° |
| 2026-05-04 18:05 | 54.04206 | 10.85021 | 35969 ft | 419 kts | 203° |
| 2026-05-04 18:05 | 53.97775 | 10.81279 | 35968 ft | 416 kts | 204° |
| 2026-05-04 18:06 | 53.89613 | 10.76468 | 35965 ft | 414 kts | 204° |
| 2026-05-04 18:06 | 53.84201 | 10.73312 | 35965 ft | 414 kts | 204° |
| 2026-05-04 18:07 | 53.78741 | 10.70145 | 35964 ft | 414 kts | 204° |
| 2026-05-04 18:07 | 53.73291 | 10.66995 | 35964 ft | 414 kts | 204° |
| 2026-05-04 18:08 | 53.67836 | 10.63855 | 35965 ft | 414 kts | 204° |
| 2026-05-04 18:08 | 53.62385 | 10.60726 | 35965 ft | 414 kts | 204° |
| 2026-05-04 18:09 | 53.51471 | 10.54486 | 35964 ft | 414 kts | 203° |
| 2026-05-04 18:10 | 53.46015 | 10.51379 | 35959 ft | 413 kts | 203° |
| 2026-05-04 18:10 | 53.40565 | 10.48285 | 35958 ft | 413 kts | 204° |
| 2026-05-04 18:11 | 53.35126 | 10.45205 | 35956 ft | 413 kts | 203° |
| 2026-05-04 18:11 | 53.29718 | 10.42150 | 35953 ft | 413 kts | 203° |
| 2026-05-04 18:12 | 53.24264 | 10.39079 | 35950 ft | 413 kts | 203° |
| 2026-05-04 18:12 | 53.18809 | 10.36015 | 35946 ft | 413 kts | 203° |
| 2026-05-04 18:13 | 53.13368 | 10.32967 | 35943 ft | 413 kts | 203° |
| 2026-05-04 18:14 | 53.05189 | 10.28400 | 35938 ft | 412 kts | 203° |
| 2026-05-04 18:14 | 52.99751 | 10.25373 | 35936 ft | 411 kts | 203° |
| 2026-05-04 18:15 | 52.88881 | 10.19349 | 35935 ft | 413 kts | 203° |
| 2026-05-04 18:16 | 52.83443 | 10.16347 | 35935 ft | 415 kts | 203° |
| 2026-05-04 18:16 | 52.77975 | 10.13336 | 35936 ft | 413 kts | 203° |
| 2026-05-04 18:17 | 52.69788 | 10.08844 | 35935 ft | 413 kts | 203° |
| 2026-05-04 18:18 | 52.61603 | 10.04369 | 35935 ft | 413 kts | 203° |
| 2026-05-04 18:18 | 52.56149 | 10.01398 | 35935 ft | 412 kts | 202° |
| 2026-05-04 18:19 | 52.48899 | 9.97459 | 35941 ft | 411 kts | 202° |
| 2026-05-04 18:19 | 52.43469 | 9.94519 | 35947 ft | 410 kts | 202° |
| 2026-05-04 18:20 | 52.38036 | 9.91585 | 35952 ft | 411 kts | 202° |
| 2026-05-04 18:20 | 52.32635 | 9.88675 | 35954 ft | 411 kts | 202° |
| 2026-05-04 18:21 | 52.27207 | 9.85758 | 35956 ft | 411 kts | 202° |
| 2026-05-04 18:21 | 52.21773 | 9.82846 | 35957 ft | 411 kts | 202° |
| 2026-05-04 18:22 | 52.16349 | 9.79946 | 35957 ft | 411 kts | 202° |
| 2026-05-04 18:22 | 52.10911 | 9.77046 | 35959 ft | 411 kts | 202° |
| 2026-05-04 18:23 | 52.05476 | 9.74156 | 35961 ft | 411 kts | 202° |
| 2026-05-04 18:23 | 52.00047 | 9.71276 | 35963 ft | 411 kts | 202° |
| 2026-05-04 18:24 | 51.94608 | 9.68398 | 35966 ft | 410 kts | 202° |
| 2026-05-04 18:24 | 51.89143 | 9.65513 | 36257 ft | 413 kts | 202° |
| 2026-05-04 18:25 | 51.86449 | 9.64094 | 36504 ft | 413 kts | 202° |
| 2026-05-04 18:25 | 51.83712 | 9.62655 | 36718 ft | 414 kts | 202° |
| 2026-05-04 18:25 | 51.80978 | 9.61218 | 36939 ft | 414 kts | 201° |
| 2026-05-04 18:25 | 51.78233 | 9.59778 | 36968 ft | 416 kts | 201° |
| 2026-05-04 18:26 | 51.72730 | 9.56895 | 36976 ft | 415 kts | 201° |
| 2026-05-04 18:26 | 51.67237 | 9.54025 | 36983 ft | 414 kts | 201° |
| 2026-05-04 18:27 | 51.61744 | 9.51163 | 36987 ft | 414 kts | 201° |
| 2026-05-04 18:27 | 51.56267 | 9.48290 | 36990 ft | 414 kts | 201° |
| 2026-05-04 18:28 | 51.50773 | 9.45437 | 36992 ft | 414 kts | 201° |
| 2026-05-04 18:28 | 51.45285 | 9.42607 | 36993 ft | 415 kts | 201° |
| 2026-05-04 18:29 | 51.39796 | 9.39785 | 36994 ft | 414 kts | 201° |
| 2026-05-04 18:29 | 51.34305 | 9.36967 | 36994 ft | 414 kts | 201° |
| 2026-05-04 18:30 | 51.26057 | 9.32836 | 36986 ft | 415 kts | 199° |
| 2026-05-04 18:31 | 51.20508 | 9.30393 | 36977 ft | 414 kts | 199° |
| 2026-05-04 18:31 | 51.14934 | 9.27925 | 36968 ft | 414 kts | 199° |
| 2026-05-04 18:32 | 51.09373 | 9.25452 | 36964 ft | 415 kts | 199° |
| 2026-05-04 18:32 | 51.03847 | 9.22992 | 36964 ft | 415 kts | 199° |
| 2026-05-04 18:33 | 50.98300 | 9.20527 | 36965 ft | 414 kts | 199° |
| 2026-05-04 18:33 | 50.92747 | 9.18035 | 36966 ft | 414 kts | 199° |
| 2026-05-04 18:34 | 50.87204 | 9.15555 | 36966 ft | 414 kts | 199° |
| 2026-05-04 18:34 | 50.81653 | 9.13087 | 36967 ft | 414 kts | 199° |
| 2026-05-04 18:35 | 50.76101 | 9.10630 | 36968 ft | 414 kts | 199° |
| 2026-05-04 18:35 | 50.70563 | 9.08185 | 36968 ft | 413 kts | 199° |
| 2026-05-04 18:36 | 50.65018 | 9.05744 | 36972 ft | 413 kts | 199° |
| 2026-05-04 18:36 | 50.59479 | 9.03312 | 36973 ft | 414 kts | 198° |
| 2026-05-04 18:37 | 50.53924 | 9.00879 | 36973 ft | 414 kts | 198° |
| 2026-05-04 18:37 | 50.48374 | 8.98454 | 36973 ft | 414 kts | 198° |
| 2026-05-04 18:38 | 50.42869 | 8.96054 | 36972 ft | 413 kts | 198° |
| 2026-05-04 18:38 | 50.37315 | 8.93639 | 36971 ft | 413 kts | 198° |
| 2026-05-04 18:39 | 50.32716 | 8.91621 | 36970 ft | 413 kts | 198° |
| 2026-05-04 18:39 | 50.27849 | 8.89511 | 36971 ft | 413 kts | 198° |
| 2026-05-04 18:40 | 50.22286 | 8.87115 | 36970 ft | 413 kts | 198° |
| 2026-05-04 18:40 | 50.16781 | 8.84750 | 36969 ft | 413 kts | 198° |
| 2026-05-04 18:41 | 50.11224 | 8.82367 | 36967 ft | 413 kts | 198° |
| 2026-05-04 18:41 | 50.05665 | 8.80075 | 36966 ft | 414 kts | 195° |
| 2026-05-04 18:42 | 49.99952 | 8.78686 | 36965 ft | 416 kts | 190° |
| 2026-05-04 18:42 | 49.94205 | 8.77592 | 36965 ft | 416 kts | 190° |
| 2026-05-04 18:43 | 49.88463 | 8.76439 | 36965 ft | 416 kts | 190° |
| 2026-05-04 18:43 | 49.82688 | 8.75264 | 36965 ft | 416 kts | 190° |
| 2026-05-04 18:44 | 49.76954 | 8.74096 | 36965 ft | 416 kts | 190° |
| 2026-05-04 18:44 | 49.71239 | 8.72932 | 36965 ft | 417 kts | 190° |
| 2026-05-04 18:45 | 49.65491 | 8.71754 | 36965 ft | 417 kts | 190° |
| 2026-05-04 18:45 | 49.59739 | 8.70583 | 36965 ft | 417 kts | 190° |
| 2026-05-04 18:46 | 49.53978 | 8.69414 | 36964 ft | 417 kts | 190° |
| 2026-05-04 18:46 | 49.48215 | 8.68248 | 36965 ft | 418 kts | 190° |
| 2026-05-04 18:47 | 49.42447 | 8.67079 | 36964 ft | 418 kts | 190° |
| 2026-05-04 18:47 | 49.36714 | 8.65920 | 36964 ft | 417 kts | 190° |
| 2026-05-04 18:48 | 49.30913 | 8.64747 | 36964 ft | 417 kts | 190° |
| 2026-05-04 18:48 | 49.25182 | 8.63578 | 36964 ft | 417 kts | 190° |
| 2026-05-04 18:49 | 49.19425 | 8.62420 | 36963 ft | 418 kts | 190° |
| 2026-05-04 18:49 | 49.13660 | 8.61266 | 36964 ft | 418 kts | 190° |
| 2026-05-04 18:50 | 49.07877 | 8.60111 | 36964 ft | 419 kts | 190° |
| 2026-05-04 18:50 | 49.02087 | 8.58956 | 36965 ft | 419 kts | 190° |
| 2026-05-04 18:51 | 48.96335 | 8.57590 | 36964 ft | 418 kts | 194° |
| 2026-05-04 18:51 | 48.90655 | 8.55688 | 36964 ft | 418 kts | 195° |
| 2026-05-04 18:52 | 48.84975 | 8.53803 | 36964 ft | 418 kts | 194° |
| 2026-05-04 18:52 | 48.79280 | 8.51952 | 36964 ft | 419 kts | 194° |
| 2026-05-04 18:53 | 48.73581 | 8.50116 | 36968 ft | 419 kts | 194° |
| 2026-05-04 18:53 | 48.67868 | 8.48284 | 36969 ft | 420 kts | 194° |
| 2026-05-04 18:54 | 48.62156 | 8.46439 | 36971 ft | 420 kts | 194° |
| 2026-05-04 18:54 | 48.56445 | 8.44604 | 36973 ft | 420 kts | 194° |
| 2026-05-04 18:55 | 48.50719 | 8.42774 | 36975 ft | 421 kts | 194° |
| 2026-05-04 18:55 | 48.42123 | 8.40022 | 36978 ft | 420 kts | 194° |
| 2026-05-04 18:56 | 48.36427 | 8.38218 | 36980 ft | 421 kts | 194° |
| 2026-05-04 18:56 | 48.30697 | 8.36410 | 36979 ft | 421 kts | 194° |
| 2026-05-04 18:57 | 48.24964 | 8.34604 | 36988 ft | 421 kts | 194° |
| 2026-05-04 18:57 | 48.19196 | 8.33000 | 36989 ft | 423 kts | 188° |
| 2026-05-04 18:58 | 48.13286 | 8.33140 | 36990 ft | 427 kts | 176° |
| 2026-05-04 18:58 | 48.07391 | 8.34416 | 36990 ft | 428 kts | 173° |
| 2026-05-04 18:59 | 48.02508 | 8.35610 | 36993 ft | 428 kts | 174° |
| 2026-05-04 18:59 | 47.96627 | 8.37055 | 36994 ft | 428 kts | 174° |
| 2026-05-04 19:00 | 47.91737 | 8.38241 | 36995 ft | 428 kts | 174° |
| 2026-05-04 19:00 | 47.86647 | 8.39467 | 36996 ft | 429 kts | 174° |
| 2026-05-04 19:01 | 47.80752 | 8.40884 | 36996 ft | 429 kts | 174° |
| 2026-05-04 19:01 | 47.74855 | 8.42297 | 36996 ft | 429 kts | 174° |
| 2026-05-04 19:02 | 47.70158 | 8.43422 | 36996 ft | 428 kts | 174° |
| 2026-05-04 19:02 | 47.64246 | 8.44522 | 36995 ft | 427 kts | 178° |
| 2026-05-04 19:03 | 47.58342 | 8.45301 | 36995 ft | 427 kts | 178° |
| 2026-05-04 19:03 | 47.52411 | 8.46155 | 36994 ft | 428 kts | 177° |
| 2026-05-04 19:04 | 47.46489 | 8.47017 | 36994 ft | 428 kts | 177° |
| 2026-05-04 19:04 | 47.40559 | 8.47882 | 36995 ft | 428 kts | 178° |
| 2026-05-04 19:05 | 47.34618 | 8.48747 | 36999 ft | 428 kts | 178° |
| 2026-05-04 19:05 | 47.28684 | 8.49609 | 37003 ft | 429 kts | 178° |
| 2026-05-04 19:06 | 47.22747 | 8.50475 | 37008 ft | 429 kts | 178° |
| 2026-05-04 19:06 | 47.16798 | 8.51338 | 37014 ft | 429 kts | 178° |
| 2026-05-04 19:07 | 47.10847 | 8.52198 | 37016 ft | 429 kts | 178° |
| 2026-05-04 19:07 | 47.04932 | 8.53050 | 37021 ft | 430 kts | 178° |
| 2026-05-04 19:08 | 46.98971 | 8.53910 | 37022 ft | 430 kts | 178° |
| 2026-05-04 19:08 | 46.93011 | 8.54769 | 37023 ft | 430 kts | 178° |
| 2026-05-04 19:09 | 46.87044 | 8.55636 | 37023 ft | 430 kts | 178° |
| 2026-05-04 19:09 | 46.81123 | 8.56486 | 37024 ft | 431 kts | 178° |
| 2026-05-04 19:10 | 46.75118 | 8.57345 | 37027 ft | 431 kts | 178° |
| 2026-05-04 19:10 | 46.69181 | 8.58192 | 37031 ft | 431 kts | 178° |
| 2026-05-04 19:11 | 46.63205 | 8.59043 | 37036 ft | 431 kts | 178° |
| 2026-05-04 19:11 | 46.57228 | 8.59892 | 37043 ft | 431 kts | 179° |
| 2026-05-04 19:12 | 46.48276 | 8.61161 | 37053 ft | 431 kts | 179° |
| 2026-05-04 19:13 | 46.42298 | 8.62008 | 37059 ft | 432 kts | 178° |
| 2026-05-04 19:13 | 46.36354 | 8.62857 | 37064 ft | 431 kts | 179° |
| 2026-05-04 19:14 | 46.30371 | 8.63701 | 37070 ft | 432 kts | 179° |
| 2026-05-04 19:14 | 46.24389 | 8.64541 | 37074 ft | 432 kts | 179° |
| 2026-05-04 19:15 | 46.18409 | 8.65379 | 37080 ft | 432 kts | 179° |
| 2026-05-04 19:15 | 46.12427 | 8.66135 | 37082 ft | 430 kts | 182° |
| 2026-05-04 19:16 | 46.06497 | 8.65675 | 37081 ft | 425 kts | 191° |
| 2026-05-04 19:16 | 46.00627 | 8.64506 | 37081 ft | 424 kts | 192° |
| 2026-05-04 19:17 | 45.96047 | 8.63570 | 37080 ft | 424 kts | 192° |
| 2026-05-04 19:17 | 45.90209 | 8.62380 | 37081 ft | 424 kts | 192° |
| 2026-05-04 19:18 | 45.84365 | 8.61193 | 37081 ft | 424 kts | 192° |
| 2026-05-04 19:18 | 45.78519 | 8.60009 | 37082 ft | 423 kts | 192° |
| 2026-05-04 19:19 | 45.72686 | 8.58817 | 37082 ft | 423 kts | 193° |
| 2026-05-04 19:19 | 45.66860 | 8.57631 | 37082 ft | 423 kts | 193° |
| 2026-05-04 19:20 | 45.61017 | 8.56448 | 37084 ft | 423 kts | 193° |
| 2026-05-04 19:20 | 45.55187 | 8.55271 | 37083 ft | 422 kts | 193° |
| 2026-05-04 19:21 | 45.49398 | 8.54106 | 37083 ft | 423 kts | 193° |
| 2026-05-04 19:21 | 45.43575 | 8.52936 | 37085 ft | 422 kts | 193° |